Time;durP1;ratioP1;P1;durP2;ratioP2;P2;SDS_P1;SDS_P2;PMS_P1;PMS_P2;Temp;Humidity;BMP_temperature;BMP_pressure;BME280_temperature;BME280_humidity;BME280_pressure;Samples;Min_cycle;Max_cycle;Signal;HPM_P1;HPM_P2
2021/11/19 00:00:03;;;;;;;11.98;6.65;;;11.10;92.80;;;;;;2112052;28;20509;-90
2021/11/19 00:01:17;;;;;;;14.90;7.05;;;11.10;92.80;;;;;;2114017;28;20035;-89
2021/11/19 00:02:18;;;;;;;15.77;7.45;;;11.10;92.80;;;;;;2109549;28;20025;-89
2021/11/19 00:03:19;;;;;;;13.57;7.10;;;11.10;92.80;;;;;;2110771;28;20023;-89
2021/11/19 00:04:20;;;;;;;12.40;7.03;;;11.10;92.80;;;;;;2107989;28;20401;-89
2021/11/19 00:05:21;;;;;;;15.43;7.53;;;11.10;92.80;;;;;;2096154;28;20045;-89
2021/11/19 00:06:22;;;;;;;16.73;7.78;;;11.10;92.90;;;;;;2099881;28;20075;-89
2021/11/19 00:07:23;;;;;;;13.98;6.68;;;11.10;92.80;;;;;;2100724;28;20074;-90
2021/11/19 00:08:27;;;;;;;11.75;6.90;;;11.10;92.80;;;;;;2099801;28;20024;-91
2021/11/19 00:09:29;;;;;;;15.27;7.85;;;11.10;93.10;;;;;;2100984;28;20525;-89
2021/11/19 00:10:31;;;;;;;16.02;7.15;;;11.00;92.80;;;;;;2090950;28;20025;-89
2021/11/19 00:11:35;;;;;;;12.05;7.28;;;11.10;92.80;;;;;;2090465;28;20029;-89
2021/11/19 00:12:36;;;;;;;12.35;7.00;;;11.10;92.90;;;;;;2109094;28;20028;-89
2021/11/19 00:13:37;;;;;;;11.07;6.78;;;11.10;92.90;;;;;;2115837;28;20008;-89
2021/11/19 00:14:38;;;;;;;13.18;7.43;;;11.10;92.90;;;;;;2095005;28;20482;-89
2021/11/19 00:15:39;;;;;;;11.65;7.30;;;11.10;92.90;;;;;;2095307;28;20025;-89
2021/11/19 00:16:42;;;;;;;14.63;7.60;;;11.10;92.90;;;;;;2108509;28;20449;-89
2021/11/19 00:17:43;;;;;;;14.57;7.50;;;11.10;92.90;;;;;;2118833;28;20020;-89
2021/11/19 00:18:44;;;;;;;13.63;7.28;;;11.10;92.90;;;;;;2106001;28;20550;-89
2021/11/19 00:19:46;;;;;;;16.10;7.68;;;11.10;92.90;;;;;;2098465;28;20139;-89
2021/11/19 00:20:47;;;;;;;13.65;7.13;;;11.10;92.90;;;;;;2113701;28;20114;-89
2021/11/19 00:21:48;;;;;;;14.95;7.65;;;11.10;92.90;;;;;;2115203;28;20036;-89
2021/11/19 00:22:49;;;;;;;12.70;7.00;;;11.10;92.90;;;;;;2106287;28;20024;-90
2021/11/19 00:23:51;;;;;;;13.38;7.53;;;11.10;92.90;;;;;;2109679;28;20395;-90
2021/11/19 00:24:51;;;;;;;12.85;7.22;;;11.10;92.90;;;;;;2111509;28;20012;-91
2021/11/19 00:25:52;;;;;;;14.82;7.50;;;11.10;92.90;;;;;;2097879;28;20128;-89
2021/11/19 00:26:53;;;;;;;14.18;7.60;;;11.10;92.90;;;;;;2101098;28;20044;-90
2021/11/19 00:27:54;;;;;;;11.82;6.95;;;11.10;92.90;;;;;;2114880;28;20038;-88
2021/11/19 00:28:55;;;;;;;15.75;7.22;;;11.10;92.90;;;;;;2105680;28;20024;-90
2021/11/19 00:29:56;;;;;;;11.90;7.18;;;11.10;92.90;;;;;;2106447;28;20482;-89
2021/11/19 00:30:57;;;;;;;13.82;7.38;;;11.10;92.90;;;;;;2098145;28;20037;-89
2021/11/19 00:31:58;;;;;;;13.70;7.70;;;11.10;92.90;;;;;;2104753;28;20024;-90
2021/11/19 00:32:59;;;;;;;13.65;7.45;;;11.10;92.90;;;;;;2106336;28;20473;-89
2021/11/19 00:33:59;;;;;;;12.27;7.53;;;11.10;92.90;;;;;;2105739;28;20020;-88
2021/11/19 00:35:00;;;;;;;11.57;7.43;;;11.10;92.90;;;;;;2098774;28;20118;-90
2021/11/19 00:36:02;;;;;;;13.38;6.95;;;11.10;92.90;;;;;;2110035;28;20080;-90
2021/11/19 00:37:04;;;;;;;11.48;6.95;;;11.10;92.90;;;;;;2111666;28;20038;-90
2021/11/19 00:38:07;;;;;;;12.70;7.70;;;11.10;92.90;;;;;;2106335;28;20016;-90
2021/11/19 00:39:11;;;;;;;12.95;7.45;;;11.10;92.90;;;;;;2106306;28;20062;-90
2021/11/19 00:40:18;;;;;;;13.63;7.50;;;11.10;92.90;;;;;;2106403;28;20016;-91
2021/11/19 00:41:19;;;;;;;12.52;7.32;;;11.10;92.90;;;;;;2098854;28;20094;-90
2021/11/19 00:42:19;;;;;;;10.02;6.72;;;11.10;92.90;;;;;;2104782;28;20444;-90
2021/11/19 00:43:21;;;;;;;13.05;7.10;;;11.10;92.90;;;;;;2106515;28;20028;-90
2021/11/19 00:44:22;;;;;;;10.52;7.25;;;11.10;92.90;;;;;;2106503;28;20497;-90
2021/11/19 00:45:24;;;;;;;13.23;8.07;;;11.10;92.90;;;;;;2106976;28;20017;-90
2021/11/19 00:46:25;;;;;;;13.02;7.43;;;11.10;92.90;;;;;;2109113;28;20385;-90
2021/11/19 00:47:25;;;;;;;12.90;7.43;;;11.10;92.90;;;;;;2105670;28;20032;-90
2021/11/19 00:48:28;;;;;;;15.57;8.25;;;11.10;93.00;;;;;;2088975;28;20126;-90
2021/11/19 00:49:32;;;;;;;14.25;7.95;;;11.10;93.00;;;;;;2098356;28;20029;-91
2021/11/19 00:50:41;;;;;;;14.30;7.60;;;11.10;93.00;;;;;;2105609;28;20020;-91
2021/11/19 00:51:45;;;;;;;15.00;7.65;;;11.10;93.00;;;;;;2105579;28;20020;-88
2021/11/19 00:52:46;;;;;;;13.43;7.95;;;11.10;93.00;;;;;;2106771;28;20016;-90
2021/11/19 00:53:50;;;;;;;10.85;7.03;;;11.10;93.00;;;;;;2114492;28;20027;-90
2021/11/19 00:54:51;;;;;;;15.10;7.75;;;11.10;93.00;;;;;;2109981;28;20028;-89
2021/11/19 00:55:51;;;;;;;13.35;7.75;;;11.10;93.00;;;;;;2096999;28;20040;-90
2021/11/19 00:57:00;;;;;;;12.77;7.55;;;11.10;93.20;;;;;;2078206;28;20025;-89
2021/11/19 00:58:01;;;;;;;12.20;7.47;;;11.10;93.00;;;;;;2100446;28;20024;-89
2021/11/19 00:59:04;;;;;;;11.18;7.63;;;11.10;93.00;;;;;;2105966;28;20040;-90
2021/11/19 01:00:08;;;;;;;14.15;7.82;;;11.10;93.00;;;;;;2106494;28;20024;-90
2021/11/19 01:01:20;;;;;;;14.05;7.78;;;11.10;93.00;;;;;;2106081;28;20028;-88
2021/11/19 01:02:24;;;;;;;12.32;7.55;;;11.10;93.00;;;;;;2106832;28;20016;-88
2021/11/19 01:03:27;;;;;;;12.65;7.50;;;11.10;93.00;;;;;;2114257;28;20108;-90
2021/11/19 01:04:28;;;;;;;12.95;8.10;;;11.10;93.00;;;;;;2108346;28;20031;-90
2021/11/19 01:05:29;;;;;;;12.80;8.32;;;11.10;93.00;;;;;;2107917;28;20031;-90
2021/11/19 01:06:30;;;;;;;13.50;7.95;;;11.20;93.00;;;;;;2108989;28;20024;-91
2021/11/19 01:07:31;;;;;;;13.55;8.40;;;11.10;93.00;;;;;;2113244;28;20031;-90
2021/11/19 01:08:32;;;;;;;11.18;7.60;;;11.10;93.00;;;;;;2098145;28;20103;-90
2021/11/19 01:09:37;;;;;;;13.82;8.00;;;11.20;93.00;;;;;;2097961;28;20123;-91
2021/11/19 01:10:40;;;;;;;12.60;7.82;;;11.10;93.00;;;;;;2090606;28;20529;-90
2021/11/19 01:11:42;;;;;;;13.35;8.20;;;11.10;93.00;;;;;;2098030;28;20032;-91
2021/11/19 01:12:43;;;;;;;13.07;7.88;;;11.10;93.00;;;;;;2098391;28;20025;-91
2021/11/19 01:13:46;;;;;;;12.43;8.07;;;11.20;93.00;;;;;;2090823;28;20037;-90
2021/11/19 01:14:55;;;;;;;12.75;8.27;;;11.10;93.00;;;;;;2105199;28;20038;-90
2021/11/19 01:16:05;;;;;;;12.32;8.13;;;11.20;93.00;;;;;;2108019;28;20040;-90
2021/11/19 01:17:11;;;;;;;14.02;7.68;;;11.20;93.00;;;;;;2116270;28;20498;-91
2021/11/19 01:18:19;;;;;;;14.93;7.85;;;11.10;93.00;;;;;;2115823;28;20027;-91
2021/11/19 01:19:39;;;;;;;14.38;7.70;;;11.20;93.00;;;;;;2108408;28;20024;-90
2021/11/19 01:20:42;;;;;;;14.03;7.97;;;11.20;93.00;;;;;;2108528;28;20020;-91
2021/11/19 01:21:48;;;;;;;12.27;7.82;;;11.10;93.00;;;;;;2108560;28;20353;-90
2021/11/19 01:22:51;;;;;;;12.70;8.23;;;11.20;93.00;;;;;;2108709;28;20115;-91
2021/11/19 01:23:52;;;;;;;13.27;7.57;;;11.10;93.00;;;;;;2107585;28;20020;-91
2021/11/19 01:24:53;;;;;;;15.07;8.00;;;11.20;93.00;;;;;;2111689;28;20032;-91
2021/11/19 01:25:59;;;;;;;12.80;8.18;;;11.20;93.00;;;;;;2107497;28;20064;-91
2021/11/19 01:27:01;;;;;;;16.00;8.40;;;11.20;93.00;;;;;;2102795;28;20040;-91
2021/11/19 01:28:02;;;;;;;13.70;8.38;;;11.20;93.00;;;;;;2099172;28;20051;-91
2021/11/19 01:29:08;;;;;;;13.10;8.27;;;11.20;93.00;;;;;;2098410;28;20037;-91
2021/11/19 01:30:12;;;;;;;13.10;7.95;;;11.10;93.00;;;;;;2105214;28;20020;-90
2021/11/19 01:31:18;;;;;;;13.13;7.95;;;11.20;93.10;;;;;;2115177;28;20028;-90
2021/11/19 01:32:23;;;;;;;13.88;8.90;;;11.20;93.10;;;;;;2115129;28;20024;-91
2021/11/19 01:33:25;;;;;;;13.63;8.70;;;11.20;93.10;;;;;;2117251;28;20112;-90
2021/11/19 01:34:26;;;;;;;13.90;8.80;;;11.20;93.10;;;;;;2124216;28;20023;-89
2021/11/19 01:35:28;;;;;;;13.32;8.50;;;11.20;93.10;;;;;;2123071;28;20016;-83
2021/11/19 01:36:29;;;;;;;14.00;8.75;;;11.20;93.30;;;;;;2126430;27;20035;-89
2021/11/19 01:37:30;;;;;;;13.60;8.43;;;11.20;93.10;;;;;;2126404;28;20016;-84
2021/11/19 01:38:31;;;;;;;13.63;9.20;;;11.20;93.10;;;;;;2117057;28;20024;-89
2021/11/19 01:39:33;;;;;;;14.80;8.63;;;11.20;93.10;;;;;;2095928;28;20048;-90
2021/11/19 01:40:38;;;;;;;15.00;8.88;;;11.20;93.10;;;;;;2099545;28;20029;-90
2021/11/19 01:41:46;;;;;;;14.00;8.15;;;11.20;93.10;;;;;;2100905;28;20051;-90
2021/11/19 01:42:52;;;;;;;12.50;8.32;;;11.20;93.10;;;;;;2107890;28;20031;-90
2021/11/19 01:43:55;;;;;;;13.43;9.10;;;11.20;93.10;;;;;;2101162;28;20213;-89
2021/11/19 01:45:11;;;;;;;14.30;8.60;;;11.20;93.10;;;;;;2099531;28;20028;-90
2021/11/19 01:46:17;;;;;;;15.73;8.68;;;11.20;93.10;;;;;;2098716;28;20478;-90
2021/11/19 01:47:18;;;;;;;13.77;8.68;;;11.20;93.10;;;;;;2109117;28;20028;-90
2021/11/19 01:48:25;;;;;;;13.60;8.68;;;11.20;93.10;;;;;;2116238;28;20020;-90
2021/11/19 01:49:29;;;;;;;13.05;8.68;;;11.20;93.10;;;;;;2107626;28;20020;-90
2021/11/19 01:50:47;;;;;;;13.52;8.27;;;11.20;93.10;;;;;;2095882;28;20071;-90
2021/11/19 01:51:51;;;;;;;15.30;8.70;;;11.20;93.10;;;;;;2103254;28;20032;-89
2021/11/19 01:53:23;;;;;;;13.18;8.68;;;11.20;93.10;;;;;;2107615;28;20028;-90
2021/11/19 01:54:43;;;;;;;12.90;8.45;;;11.20;93.10;;;;;;2076207;28;20044;-90
2021/11/19 01:55:51;;;;;;;13.23;8.05;;;11.20;93.10;;;;;;2089519;28;20025;-90
2021/11/19 01:56:57;;;;;;;12.70;8.18;;;11.20;93.10;;;;;;2110281;28;20028;-90
2021/11/19 01:58:09;;;;;;;12.77;8.32;;;11.20;93.10;;;;;;2107681;28;20031;-91
2021/11/19 01:59:15;;;;;;;13.63;8.52;;;11.20;93.10;;;;;;2116872;27;20015;-90
2021/11/19 02:00:36;;;;;;;15.35;9.32;;;11.20;93.10;;;;;;2114533;28;20023;-91
2021/11/19 02:01:48;;;;;;;;;;;11.20;93.10;;;;;;2114561;28;20054;-91
2021/11/19 02:02:51;;;;;;;12.10;8.07;;;11.20;93.10;;;;;;2109863;28;20412;-90
2021/11/19 02:03:58;;;;;;;13.98;8.52;;;11.20;93.10;;;;;;2114619;28;20027;-89
2021/11/19 02:05:05;;;;;;;12.25;8.32;;;11.20;93.10;;;;;;2119595;28;20443;-91
2021/11/19 02:06:20;;;;;;;13.73;9.15;;;11.20;93.10;;;;;;2124912;28;20019;-89
2021/11/19 02:07:30;;;;;;;15.63;8.43;;;11.20;93.10;;;;;;2122112;28;20035;-90
2021/11/19 02:08:38;;;;;;;13.00;8.10;;;11.20;93.20;;;;;;2123003;28;20035;-90
2021/11/19 02:10:02;;;;;;;13.75;9.07;;;11.20;93.20;;;;;;2112686;28;20024;-90
2021/11/19 02:11:24;;;;;;;12.77;8.50;;;11.20;93.20;;;;;;2107781;28;20393;-90
2021/11/19 02:12:40;;;;;;;12.07;7.80;;;11.20;93.20;;;;;;2113553;28;20036;-91
2021/11/19 02:14:09;;;;;;;16.52;9.32;;;11.20;93.20;;;;;;2105524;28;20170;-91
2021/11/19 02:15:15;;;;;;;15.82;8.73;;;11.20;93.20;;;;;;2111610;28;20751;-91
2021/11/19 02:16:26;;;;;;;14.25;9.45;;;11.20;93.20;;;;;;2107650;28;20080;-91
2021/11/19 02:17:29;;;;;;;14.43;8.98;;;11.20;93.20;;;;;;2105200;28;20020;-91
2021/11/19 02:18:38;;;;;;;15.50;9.20;;;11.20;93.20;;;;;;2101756;28;20025;-90
2021/11/19 02:19:52;;;;;;;13.07;9.20;;;11.20;93.20;;;;;;2104978;28;20477;-91
2021/11/19 02:20:58;;;;;;;14.88;8.90;;;11.10;93.20;;;;;;2106174;28;20106;-89
2021/11/19 02:22:15;;;;;;;13.60;9.40;;;11.20;93.20;;;;;;2108019;28;20016;-90
2021/11/19 02:23:23;;;;;;;15.95;10.40;;;11.20;93.20;;;;;;2108596;28;20043;-90
2021/11/19 02:24:30;;;;;;;13.80;9.32;;;11.20;93.20;;;;;;2101169;28;20016;-91
2021/11/19 02:25:51;;;;;;;13.93;9.80;;;11.20;93.20;;;;;;2105872;28;20162;-91
2021/11/19 02:27:20;;;;;;;17.02;10.13;;;11.20;93.20;;;;;;2112992;28;20457;-91
2021/11/19 02:28:25;;;;;;;15.55;10.13;;;11.20;93.20;;;;;;2107413;28;20020;-90
2021/11/19 02:29:28;;;;;;;15.18;9.52;;;11.20;93.20;;;;;;2107504;28;20028;-90
2021/11/19 02:30:34;;;;;;;17.48;10.50;;;11.20;93.20;;;;;;2109692;28;20020;-90
2021/11/19 02:31:51;;;;;;;15.70;10.18;;;11.20;93.30;;;;;;2109750;28;20085;-91
2021/11/19 02:32:58;;;;;;;16.23;9.93;;;11.20;93.30;;;;;;2107657;28;20027;-90
2021/11/19 02:34:02;;;;;;;15.98;10.30;;;11.20;93.30;;;;;;2108421;28;20028;-91
2021/11/19 02:35:06;;;;;;;15.52;9.75;;;11.20;93.30;;;;;;2107818;28;20024;-90
2021/11/19 02:36:16;;;;;;;14.85;10.02;;;11.20;93.30;;;;;;2108376;28;20359;-90
2021/11/19 02:37:39;;;;;;;16.98;10.10;;;11.20;93.30;;;;;;2108479;28;20028;-91
2021/11/19 02:38:46;;;;;;;15.85;10.77;;;11.20;93.30;;;;;;2107693;28;20110;-90
2021/11/19 02:39:56;;;;;;;18.75;10.85;;;11.20;93.30;;;;;;2100329;28;20442;-91
2021/11/19 02:40:57;;;;;;;16.38;10.52;;;11.20;93.30;;;;;;2103877;28;20489;-90
2021/11/19 02:42:03;;;;;;;14.75;10.27;;;11.20;93.30;;;;;;2106603;28;20027;-91
2021/11/19 02:43:29;;;;;;;17.60;10.75;;;11.20;93.30;;;;;;2115066;28;20378;-90
2021/11/19 02:44:34;;;;;;;16.80;11.38;;;11.20;93.30;;;;;;2101800;28;20386;-91
2021/11/19 02:45:44;;;;;;;17.65;10.77;;;11.20;93.30;;;;;;2107684;28;20020;-90
2021/11/19 02:46:52;;;;;;;17.03;10.70;;;11.20;93.40;;;;;;2108260;28;20453;-91
2021/11/19 02:47:53;;;;;;;15.98;10.65;;;11.20;93.30;;;;;;2105598;28;20271;-91
2021/11/19 02:48:53;;;;;;;18.50;10.80;;;11.20;93.40;;;;;;2098763;28;20070;-91
2021/11/19 02:49:55;;;;;;;17.05;11.00;;;11.20;93.40;;;;;;2106916;28;20102;-91
2021/11/19 02:50:57;;;;;;;16.10;10.50;;;11.20;93.40;;;;;;2115478;28;20123;-89
2021/11/19 02:51:59;;;;;;;19.13;11.63;;;11.20;93.40;;;;;;2112824;28;20093;-89
2021/11/19 02:53:00;;;;;;;16.73;10.93;;;11.20;93.40;;;;;;2090971;28;20028;-88
2021/11/19 02:54:02;;;;;;;19.40;11.52;;;11.20;93.40;;;;;;2096871;28;20036;-89
2021/11/19 02:55:07;;;;;;;18.83;11.77;;;11.20;93.40;;;;;;2098992;28;20387;-89
2021/11/19 02:56:08;;;;;;;18.67;11.93;;;11.20;93.40;;;;;;2107727;28;20118;-88
2021/11/19 02:57:09;;;;;;;18.08;11.48;;;11.20;93.40;;;;;;2098635;28;20027;-89
2021/11/19 02:58:14;;;;;;;17.35;11.55;;;11.20;93.40;;;;;;2090138;28;20122;-89
2021/11/19 02:59:15;;;;;;;17.98;12.13;;;11.20;93.40;;;;;;2106825;28;20031;-89
2021/11/19 03:00:27;;;;;;;18.02;11.50;;;11.20;93.40;;;;;;2116140;28;20015;-89
2021/11/19 03:01:36;;;;;;;18.17;11.63;;;11.20;93.40;;;;;;2108518;28;20064;-89
2021/11/19 03:02:37;;;;;;;16.98;11.50;;;11.20;93.40;;;;;;2114188;28;20367;-89
2021/11/19 03:03:39;;;;;;;18.38;11.25;;;11.20;93.40;;;;;;2115339;28;20080;-90
2021/11/19 03:04:45;;;;;;;18.40;12.15;;;11.20;93.50;;;;;;2114879;28;20020;-89
2021/11/19 03:05:46;;;;;;;19.25;11.52;;;11.20;93.50;;;;;;2112658;28;20019;-89
2021/11/19 03:06:50;;;;;;;17.40;12.10;;;11.20;93.50;;;;;;2092944;28;20067;-89
2021/11/19 03:07:50;;;;;;;19.85;12.77;;;11.20;93.50;;;;;;2090086;28;20032;-89
2021/11/19 03:08:51;;;;;;;18.15;12.45;;;11.20;93.50;;;;;;2081968;28;20084;-89
2021/11/19 03:09:58;;;;;;;17.67;12.18;;;11.20;93.50;;;;;;2090589;28;20116;-90
2021/11/19 03:10:59;;;;;;;16.83;11.35;;;11.20;93.50;;;;;;2111440;28;20030;-90
2021/11/19 03:12:02;;;;;;;17.05;11.93;;;11.20;93.50;;;;;;2106438;28;20033;-89
2021/11/19 03:13:05;;;;;;;19.58;11.50;;;11.20;93.50;;;;;;2106164;28;20012;-89
2021/11/19 03:14:07;;;;;;;18.15;10.98;;;11.30;93.50;;;;;;2107367;28;20052;-89
2021/11/19 03:15:15;;;;;;;19.77;12.32;;;11.20;93.80;;;;;;2114573;28;20028;-85
2021/11/19 03:16:16;;;;;;;19.65;11.88;;;11.20;93.50;;;;;;2125127;28;20028;-88
2021/11/19 03:17:19;;;;;;;18.75;11.98;;;11.30;93.50;;;;;;2112882;28;20005;-88
2021/11/19 03:18:22;;;;;;;21.15;12.55;;;11.20;93.50;;;;;;2114562;28;20039;-86
2021/11/19 03:19:24;;;;;;;18.75;11.70;;;11.30;93.50;;;;;;2124423;28;20008;-84
2021/11/19 03:20:26;;;;;;;19.02;12.63;;;11.30;93.80;;;;;;2118643;28;20032;-85
2021/11/19 03:21:27;;;;;;;17.33;12.57;;;11.20;93.50;;;;;;2115429;28;20020;-89
2021/11/19 03:22:31;;;;;;;16.13;11.93;;;11.30;93.50;;;;;;2110019;28;20013;-89
2021/11/19 03:23:33;;;;;;;18.25;12.40;;;11.30;93.60;;;;;;2117772;28;20027;-89
2021/11/19 03:24:35;;;;;;;18.33;12.10;;;11.30;93.60;;;;;;2125010;28;20032;-89
2021/11/19 03:25:39;;;;;;;16.13;11.82;;;11.30;93.60;;;;;;2111083;28;20024;-90
2021/11/19 03:26:41;;;;;;;16.95;11.35;;;11.20;93.60;;;;;;2098664;28;20501;-90
2021/11/19 03:27:42;;;;;;;18.10;12.52;;;11.30;93.60;;;;;;2101621;28;20054;-89
2021/11/19 03:28:44;;;;;;;17.15;12.40;;;11.30;93.60;;;;;;2110992;28;20024;-90
2021/11/19 03:29:46;;;;;;;17.92;13.07;;;11.30;93.60;;;;;;2108899;28;20054;-88
2021/11/19 03:30:50;;;;;;;16.30;11.75;;;11.30;93.60;;;;;;2110451;28;20020;-88
2021/11/19 03:31:51;;;;;;;20.73;13.05;;;11.30;93.60;;;;;;2108578;28;20108;-90
2021/11/19 03:32:52;;;;;;;16.77;11.75;;;11.30;93.60;;;;;;2102369;28;20024;-89
2021/11/19 03:33:54;;;;;;;16.83;12.50;;;11.30;93.60;;;;;;2098536;28;20028;-89
2021/11/19 03:34:56;;;;;;;22.38;13.43;;;11.30;93.60;;;;;;2097817;28;20020;-89
2021/11/19 03:35:57;;;;;;;18.17;12.82;;;11.30;93.60;;;;;;2090252;28;20029;-90
2021/11/19 03:36:58;;;;;;;18.70;14.02;;;11.30;93.60;;;;;;2101335;28;20319;-89
2021/11/19 03:38:00;;;;;;;19.70;12.85;;;11.30;93.60;;;;;;2090337;28;20025;-89
2021/11/19 03:39:01;;;;;;;17.20;12.18;;;11.30;93.60;;;;;;2106730;28;20566;-90
2021/11/19 03:40:03;;;;;;;20.58;13.13;;;11.30;93.60;;;;;;2115662;28;20032;-89
2021/11/19 03:41:06;;;;;;;17.90;12.48;;;11.30;93.60;;;;;;2099085;28;20079;-89
2021/11/19 03:42:10;;;;;;;19.98;13.38;;;11.30;93.70;;;;;;2105086;28;20119;-88
2021/11/19 03:43:18;;;;;;;19.88;12.90;;;11.30;93.70;;;;;;2109287;28;20016;-90
2021/11/19 03:44:36;;;;;;;17.67;12.75;;;11.30;93.90;;;;;;2099380;28;20025;-90
2021/11/19 03:45:42;;;;;;;19.13;12.75;;;11.30;93.70;;;;;;2108082;28;20177;-90
2021/11/19 03:47:04;;;;;;;20.10;13.30;;;11.30;93.70;;;;;;2114285;28;20023;-90
2021/11/19 03:48:05;;;;;;;19.17;13.13;;;11.30;93.70;;;;;;2112680;28;20027;-90
2021/11/19 03:49:07;;;;;;;19.10;12.48;;;11.30;93.70;;;;;;2097743;28;20412;-90
2021/11/19 03:50:13;;;;;;;20.63;13.80;;;11.30;93.70;;;;;;2098760;28;20033;-90
2021/11/19 03:51:33;;;;;;;18.23;13.05;;;11.30;93.70;;;;;;2114205;28;20088;-88
2021/11/19 03:52:36;;;;;;;19.02;12.95;;;11.30;93.70;;;;;;2112721;28;20064;-90
2021/11/19 03:53:37;;;;;;;20.33;13.40;;;11.20;93.70;;;;;;2106919;28;20114;-90
2021/11/19 03:54:40;;;;;;;21.23;13.63;;;11.30;93.70;;;;;;2090051;28;20049;-90
2021/11/19 03:55:46;;;;;;;20.63;13.25;;;11.30;93.70;;;;;;2094394;28;20066;-89
2021/11/19 03:56:47;;;;;;;19.98;13.95;;;11.20;93.70;;;;;;2107820;28;20088;-90
2021/11/19 03:57:48;;;;;;;23.60;14.88;;;11.30;94.00;;;;;;2108442;28;20024;-89
2021/11/19 03:58:50;;;;;;;19.33;13.30;;;11.30;93.70;;;;;;2114647;28;20023;-89
2021/11/19 03:59:53;;;;;;;23.70;14.43;;;11.30;93.80;;;;;;2115103;28;20020;-90
2021/11/19 04:01:02;;;;;;;21.08;14.10;;;11.30;93.80;;;;;;2115153;28;20036;-90
2021/11/19 04:02:05;;;;;;;21.35;13.82;;;11.20;93.80;;;;;;2114126;28;20045;-89
2021/11/19 04:03:07;;;;;;;21.13;13.93;;;11.30;93.80;;;;;;2114957;28;20036;-90
2021/11/19 04:04:12;;;;;;;21.13;14.55;;;11.30;93.80;;;;;;2106957;28;20032;-90
2021/11/19 04:05:13;;;;;;;22.73;14.40;;;11.30;93.80;;;;;;2115295;28;20023;-89
2021/11/19 04:06:15;;;;;;;20.20;13.75;;;11.30;93.80;;;;;;2106442;28;20020;-89
2021/11/19 04:07:17;;;;;;;20.33;14.38;;;11.30;93.80;;;;;;2097572;28;20422;-89
2021/11/19 04:08:18;;;;;;;20.65;14.93;;;11.30;93.80;;;;;;2105915;28;20387;-91
2021/11/19 04:09:20;;;;;;;19.92;14.48;;;11.30;93.80;;;;;;2096492;28;20052;-90
2021/11/19 04:10:20;;;;;;;23.50;14.60;;;11.30;93.80;;;;;;2083794;28;20032;-90
2021/11/19 04:11:22;;;;;;;20.58;14.57;;;11.30;93.80;;;;;;2093743;28;20078;-89
2021/11/19 04:12:23;;;;;;;22.30;14.98;;;11.30;93.80;;;;;;2096873;28;20021;-90
2021/11/19 04:13:24;;;;;;;20.88;15.25;;;11.30;93.80;;;;;;2107003;28;20035;-90
2021/11/19 04:14:26;;;;;;;22.42;15.35;;;11.30;93.80;;;;;;2114960;28;20086;-89
2021/11/19 04:15:33;;;;;;;22.48;15.70;;;11.30;93.80;;;;;;2115026;28;20530;-89
2021/11/19 04:16:39;;;;;;;20.60;14.23;;;11.30;93.80;;;;;;2112809;28;20132;-89
2021/11/19 04:17:40;;;;;;;22.48;15.90;;;11.30;93.80;;;;;;2114946;28;20076;-89
2021/11/19 04:18:40;;;;;;;21.85;14.82;;;11.30;93.80;;;;;;2096115;28;20471;-87
2021/11/19 04:19:42;;;;;;;24.55;15.75;;;11.30;93.90;;;;;;2089471;28;20134;-89
2021/11/19 04:20:43;;;;;;;22.10;15.20;;;11.30;93.90;;;;;;2106493;28;20025;-89
2021/11/19 04:21:46;;;;;;;22.30;15.38;;;11.30;93.90;;;;;;2107489;28;20036;-89
2021/11/19 04:22:47;;;;;;;24.73;15.52;;;11.30;93.90;;;;;;2114653;28;20015;-89
2021/11/19 04:23:51;;;;;;;23.67;15.75;;;11.30;94.10;;;;;;2101881;28;20086;-89
2021/11/19 04:24:59;;;;;;;23.58;15.90;;;11.30;93.90;;;;;;2099062;28;20028;-89
2021/11/19 04:26:03;;;;;;;20.52;15.23;;;11.30;93.90;;;;;;2105742;28;20047;-90
2021/11/19 04:27:08;;;;;;;23.92;15.02;;;11.30;93.90;;;;;;2106278;28;20032;-89
2021/11/19 04:28:09;;;;;;;24.20;15.65;;;11.30;93.90;;;;;;2098489;28;20029;-88
2021/11/19 04:29:10;;;;;;;22.27;15.32;;;11.30;93.90;;;;;;2106028;28;20111;-89
2021/11/19 04:30:16;;;;;;;23.27;15.93;;;11.30;93.90;;;;;;2105763;28;20032;-89
2021/11/19 04:31:19;;;;;;;22.08;15.68;;;11.30;93.90;;;;;;2107154;28;20082;-89
2021/11/19 04:32:24;;;;;;;24.42;15.95;;;11.30;93.90;;;;;;2113336;28;20020;-89
2021/11/19 04:33:26;;;;;;;22.13;15.70;;;11.30;93.90;;;;;;2114805;28;20090;-90
2021/11/19 04:34:27;;;;;;;21.75;15.35;;;11.30;93.90;;;;;;2099190;28;20082;-89
2021/11/19 04:35:30;;;;;;;21.90;14.93;;;11.30;93.90;;;;;;2107886;28;20073;-90
2021/11/19 04:36:31;;;;;;;28.42;16.80;;;11.30;93.90;;;;;;2113965;28;20031;-90
2021/11/19 04:37:32;;;;;;;22.80;15.77;;;11.30;94.00;;;;;;2106146;28;20020;-89
2021/11/19 04:38:33;;;;;;;22.35;15.52;;;11.30;94.00;;;;;;2106329;28;20052;-90
2021/11/19 04:39:35;;;;;;;23.15;15.30;;;11.30;94.00;;;;;;2113438;28;20023;-90
2021/11/19 04:40:37;;;;;;;19.83;15.38;;;11.30;94.00;;;;;;2109205;28;20385;-90
2021/11/19 04:41:38;;;;;;;23.50;16.02;;;11.30;94.00;;;;;;2108501;28;20066;-90
2021/11/19 04:42:39;;;;;;;21.23;15.15;;;11.30;94.00;;;;;;2105406;28;20129;-90
2021/11/19 04:43:40;;;;;;;24.00;15.82;;;11.20;94.00;;;;;;2113850;28;20020;-89
2021/11/19 04:44:42;;;;;;;21.88;14.95;;;11.30;94.00;;;;;;2106342;28;20024;-89
2021/11/19 04:45:43;;;;;;;23.08;15.50;;;11.30;94.00;;;;;;2104766;28;20043;-89
2021/11/19 04:46:44;;;;;;;23.15;15.52;;;11.30;94.00;;;;;;2106149;28;20020;-90
2021/11/19 04:47:45;;;;;;;22.10;15.50;;;11.30;94.00;;;;;;2102182;28;20476;-92
2021/11/19 04:48:46;;;;;;;23.63;15.60;;;11.30;94.00;;;;;;2097984;28;20033;-90
2021/11/19 04:49:47;;;;;;;22.02;15.57;;;11.30;94.30;;;;;;2094531;28;20114;-90
2021/11/19 04:50:50;;;;;;;20.77;14.70;;;11.30;94.10;;;;;;2084967;28;20578;-90
2021/11/19 04:51:51;;;;;;;21.23;14.73;;;11.30;94.10;;;;;;2106739;28;20030;-89
2021/11/19 04:52:52;;;;;;;21.92;15.75;;;11.30;94.10;;;;;;2122752;28;20022;-89
2021/11/19 04:53:53;;;;;;;22.52;15.75;;;11.30;94.10;;;;;;2114276;28;20024;-89
2021/11/19 04:54:54;;;;;;;24.52;15.77;;;11.30;94.10;;;;;;2117925;28;20027;-89
2021/11/19 04:55:56;;;;;;;21.30;15.45;;;11.30;94.10;;;;;;2121916;28;20019;-86
2021/11/19 04:56:57;;;;;;;21.23;15.02;;;11.30;94.10;;;;;;2122066;28;20080;-88
2021/11/19 04:57:58;;;;;;;24.05;16.08;;;11.30;94.10;;;;;;2120599;28;20008;-88
2021/11/19 04:59:00;;;;;;;24.95;16.08;;;11.30;94.10;;;;;;2118369;28;20075;-89
2021/11/19 05:00:02;;;;;;;24.58;15.20;;;11.30;94.10;;;;;;2108708;28;20108;-82
2021/11/19 05:01:11;;;;;;;23.27;15.57;;;11.30;94.10;;;;;;2115858;28;20028;-88
2021/11/19 05:02:15;;;;;;;22.60;15.18;;;11.30;94.10;;;;;;2125507;28;20039;-88
2021/11/19 05:03:16;;;;;;;22.88;15.70;;;11.30;94.10;;;;;;2105971;28;20016;-89
2021/11/19 05:04:17;;;;;;;22.63;15.05;;;11.30;94.10;;;;;;2089615;28;20499;-89
2021/11/19 05:05:19;;;;;;;24.70;15.82;;;11.30;94.10;;;;;;2089855;28;20514;-88
2021/11/19 05:06:21;;;;;;;24.05;16.45;;;11.30;94.40;;;;;;2097726;28;20463;-89
2021/11/19 05:07:22;;;;;;;22.92;15.50;;;11.30;94.10;;;;;;2097819;28;20041;-89
2021/11/19 05:08:23;;;;;;;21.70;15.68;;;11.30;94.10;;;;;;2094333;28;20120;-89
2021/11/19 05:09:26;;;;;;;22.00;15.27;;;11.30;94.10;;;;;;2094019;28;20403;-90
2021/11/19 05:10:27;;;;;;;21.42;15.10;;;11.30;94.10;;;;;;2088855;28;20039;-90
2021/11/19 05:11:58;;;;;;;21.45;14.80;;;11.30;94.10;;;;;;2092969;28;20495;-89
2021/11/19 05:13:00;;;;;;;23.20;15.00;;;11.30;94.10;;;;;;2101115;28;20047;-90
2021/11/19 05:14:02;;;;;;;21.73;14.88;;;11.30;94.10;;;;;;2116809;28;20394;-90
2021/11/19 05:15:05;;;;;;;23.45;15.55;;;11.30;94.10;;;;;;2115710;28;20398;-89
2021/11/19 05:16:09;;;;;;;21.67;14.52;;;11.30;94.10;;;;;;2110010;28;20030;-88
2021/11/19 05:17:10;;;;;;;22.92;15.25;;;11.30;94.10;;;;;;2112933;28;20020;-90
2021/11/19 05:18:11;;;;;;;20.13;14.10;;;11.30;94.10;;;;;;2109748;28;20107;-90
2021/11/19 05:19:12;;;;;;;22.25;15.10;;;11.30;94.20;;;;;;2102652;28;20060;-90
2021/11/19 05:20:16;;;;;;;21.48;14.45;;;11.30;94.20;;;;;;2103871;28;20025;-89
2021/11/19 05:21:19;;;;;;;20.42;14.88;;;11.30;94.20;;;;;;2096220;28;20065;-89
2021/11/19 05:22:21;;;;;;;21.35;14.75;;;11.30;94.20;;;;;;2105774;28;20058;-90
2021/11/19 05:23:22;;;;;;;22.92;15.85;;;11.30;94.20;;;;;;2104749;28;20036;-91
2021/11/19 05:24:23;;;;;;;23.05;14.77;;;11.30;94.20;;;;;;2097907;28;20024;-90
2021/11/19 05:25:28;;;;;;;22.52;15.25;;;11.30;94.20;;;;;;2087808;28;20021;-90
2021/11/19 05:26:30;;;;;;;22.80;14.95;;;11.30;94.20;;;;;;2090650;28;20120;-90
2021/11/19 05:27:31;;;;;;;21.73;14.70;;;11.30;94.20;;;;;;2089521;28;20041;-90